Time,TemperatureF,DewpointF,PressureIn,WindDirection,WindDirectionDegrees,WindSpeedMPH,WindSpeedGustMPH,Humidity,HourlyPrecipIn,Conditions,Clouds,dailyrainin,SolarRadiationWatts/m^2,SoftwareType,DateUTC
2013-04-22 00:01:00,58.0,26.0,-100.00,SE,146,8.0,13.0,29,0.00,,,0.00,0.000000,,2013-04-22 07:01:00,
2013-04-22 00:32:00,58.0,27.0,-100.00,SSE,149,9.0,13.0,30,0.00,,,0.00,0.000000,,2013-04-22 07:32:00,
2013-04-22 00:42:00,58.0,27.0,-100.00,SSE,149,9.0,13.0,30,0.00,,,0.00,0.000000,,2013-04-22 07:42:00,
2013-04-22 00:52:00,58.0,27.0,-100.00,SSE,149,9.0,13.0,30,0.00,,,0.00,0.000000,,2013-04-22 07:52:00,
2013-04-22 01:01:00,58.0,27.0,-100.00,SSE,149,9.0,13.0,30,0.00,,,0.00,0.000000,,2013-04-22 08:01:00,
2013-04-22 01:32:00,58.0,29.0,-100.00,SE,140,8.0,14.0,33,0.00,,,0.00,0.000000,,2013-04-22 08:32:00,
2013-04-22 01:42:00,58.0,29.0,-100.00,SE,140,8.0,14.0,33,0.00,,,0.00,0.000000,,2013-04-22 08:42:00,
2013-04-22 01:52:00,58.0,29.0,-100.00,SE,140,8.0,14.0,33,0.00,,,0.00,0.000000,,2013-04-22 08:52:00,
2013-04-22 02:01:00,58.0,29.0,-100.00,SE,140,8.0,14.0,33,0.00,,,0.00,0.000000,,2013-04-22 09:01:00,
2013-04-22 02:02:00,58.0,32.0,-100.00,SSE,158,4.0,15.0,37,0.00,,,-99.99,0.000000,,2013-04-22 09:02:00,
2013-04-22 02:33:00,58.0,32.0,-100.00,SSE,158,4.0,15.0,37,0.00,,,-99.99,0.000000,,2013-04-22 09:33:00,
2013-04-22 02:42:00,58.0,32.0,-100.00,SSE,158,4.0,15.0,37,0.00,,,-99.99,0.000000,,2013-04-22 09:42:00,
2013-04-22 02:52:00,58.0,32.0,-100.00,SSE,158,4.0,15.0,37,0.00,,,-99.99,0.000000,,2013-04-22 09:52:00,
2013-04-22 03:02:00,56.0,30.0,-100.00,SE,137,6.0,12.0,37,0.00,,,0.00,0.000000,,2013-04-22 10:02:00,
2013-04-22 03:23:00,56.0,30.0,-100.00,SE,137,6.0,12.0,37,0.00,,,0.00,0.000000,,2013-04-22 10:23:00,
2013-04-22 03:32:00,56.0,30.0,-100.00,SE,137,6.0,12.0,37,0.00,,,0.00,0.000000,,2013-04-22 10:32:00,
2013-04-22 03:42:00,56.0,30.0,-100.00,SE,137,6.0,12.0,37,0.00,,,0.00,0.000000,,2013-04-22 10:42:00,
2013-04-22 03:52:00,56.0,30.0,-100.00,SE,137,6.0,12.0,37,0.00,,,0.00,0.000000,,2013-04-22 10:52:00,
2013-04-22 04:22:00,56.0,31.0,-100.00,SSE,160,6.0,10.0,39,0.00,,,0.00,0.000000,,2013-04-22 11:22:00,
2013-04-22 04:33:00,56.0,31.0,-100.00,SSE,160,6.0,10.0,39,0.00,,,0.00,0.000000,,2013-04-22 11:33:00,
2013-04-22 04:42:00,56.0,31.0,-100.00,SSE,160,6.0,10.0,39,0.00,,,0.00,0.000000,,2013-04-22 11:42:00,
2013-04-22 04:52:00,56.0,31.0,-100.00,SSE,160,6.0,10.0,39,0.00,,,0.00,0.000000,,2013-04-22 11:52:00,
2013-04-22 05:01:00,56.0,31.0,-100.00,SSE,160,6.0,10.0,39,0.00,,,0.00,0.000000,,2013-04-22 12:01:00,
2013-04-22 05:32:00,53.0,31.0,-100.00,ESE,123,6.0,10.0,43,0.00,,,0.00,0.000000,,2013-04-22 12:32:00,
2013-04-22 05:42:00,53.0,31.0,-100.00,ESE,123,6.0,10.0,43,0.00,,,0.00,0.000000,,2013-04-22 12:42:00,
2013-04-22 05:52:00,53.0,31.0,-100.00,ESE,123,6.0,10.0,43,0.00,,,0.00,0.000000,,2013-04-22 12:52:00,
2013-04-22 06:01:00,53.0,31.0,-100.00,ESE,123,6.0,10.0,43,0.00,,,0.00,0.000000,,2013-04-22 13:01:00,
2013-04-22 06:32:00,55.0,26.0,-100.00,SE,144,8.0,11.0,32,0.00,,,0.00,0.000000,,2013-04-22 13:32:00,
2013-04-22 06:42:00,55.0,26.0,-100.00,SE,144,8.0,11.0,32,0.00,,,0.00,0.000000,,2013-04-22 13:42:00,
2013-04-22 06:52:00,55.0,26.0,-100.00,SE,144,8.0,11.0,32,0.00,,,0.00,0.000000,,2013-04-22 13:52:00,
2013-04-22 07:01:00,55.0,26.0,-100.00,SE,144,8.0,11.0,32,0.00,,,0.00,0.000000,,2013-04-22 14:01:00,
2013-04-22 07:22:00,56.0,26.0,-100.00,ESE,119,4.0,10.0,31,0.00,,,-99.99,20.000000,,2013-04-22 14:22:00,
2013-04-22 07:33:00,56.0,26.0,-100.00,ESE,119,4.0,10.0,31,0.00,,,-99.99,20.000000,,2013-04-22 14:33:00,
2013-04-22 07:42:00,56.0,26.0,-100.00,ESE,119,4.0,10.0,31,0.00,,,-99.99,20.000000,,2013-04-22 14:42:00,
2013-04-22 07:52:00,56.0,26.0,-100.00,ESE,119,4.0,10.0,31,0.00,,,-99.99,20.000000,,2013-04-22 14:52:00,
2013-04-22 08:01:00,56.0,26.0,-100.00,ESE,119,4.0,10.0,31,0.00,,,-99.99,20.000000,,2013-04-22 15:01:00,
2013-04-22 08:02:00,66.0,31.0,-100.00,East,85,2.0,6.0,27,0.00,,,0.00,193.000000,,2013-04-22 15:02:00,
2013-04-22 08:22:00,66.0,31.0,-100.00,East,85,2.0,6.0,27,0.00,,,0.00,193.000000,,2013-04-22 15:22:00,
2013-04-22 08:33:00,66.0,31.0,-100.00,East,85,2.0,6.0,27,0.00,,,0.00,193.000000,,2013-04-22 15:33:00,
2013-04-22 09:02:00,69.0,25.0,-100.00,NNW,333,5.0,8.0,19,0.00,,,0.00,490.000000,,2013-04-22 16:02:00,
2013-04-22 09:33:00,69.0,25.0,-100.00,NNW,333,5.0,8.0,19,0.00,,,0.00,490.000000,,2013-04-22 16:33:00,
2013-04-22 09:42:00,69.0,25.0,-100.00,NNW,333,5.0,8.0,19,0.00,,,0.00,490.000000,,2013-04-22 16:42:00,
2013-04-22 09:52:00,69.0,25.0,-100.00,NNW,333,5.0,8.0,19,0.00,,,0.00,490.000000,,2013-04-22 16:52:00,
2013-04-22 10:32:00,68.0,24.0,-100.00,SW,231,7.0,12.0,19,0.00,,,-99.99,730.000000,,2013-04-22 17:32:00,
2013-04-22 10:43:00,68.0,24.0,-100.00,SW,231,7.0,12.0,19,0.00,,,-99.99,730.000000,,2013-04-22 17:43:00,
2013-04-22 10:52:00,68.0,24.0,-100.00,SW,231,7.0,12.0,19,0.00,,,-99.99,730.000000,,2013-04-22 17:52:00,
2013-04-22 11:01:00,68.0,24.0,-100.00,SW,231,7.0,12.0,19,0.00,,,-99.99,730.000000,,2013-04-22 18:01:00,
2013-04-22 11:32:00,71.0,24.0,-100.00,SW,230,8.0,15.0,17,0.00,,,0.00,932.000000,,2013-04-22 18:32:00,
2013-04-22 11:42:00,71.0,24.0,-100.00,SW,230,8.0,15.0,17,0.00,,,0.00,932.000000,,2013-04-22 18:42:00,
2013-04-22 11:52:00,71.0,24.0,-100.00,SW,230,8.0,15.0,17,0.00,,,0.00,932.000000,,2013-04-22 18:52:00,
2013-04-22 12:01:00,71.0,24.0,-100.00,SW,230,8.0,15.0,17,0.00,,,0.00,932.000000,,2013-04-22 19:01:00,
2013-04-22 12:22:00,75.0,23.0,-100.00,WSW,241,6.0,15.0,14,0.00,,,0.00,1070.000000,,2013-04-22 19:22:00,
2013-04-22 12:32:00,75.0,23.0,-100.00,WSW,241,6.0,15.0,14,0.00,,,0.00,1070.000000,,2013-04-22 19:32:00,
2013-04-22 13:32:00,74.0,33.0,-100.00,SSW,195,9.0,14.0,22,0.00,,,0.00,1134.000000,,2013-04-22 20:32:00,
2013-04-22 14:02:00,73.0,34.0,-100.00,South,180,10.0,15.0,24,0.00,,,0.00,1131.000000,,2013-04-22 21:02:00,
2013-04-22 14:33:00,73.0,34.0,-100.00,South,180,10.0,15.0,24,0.00,,,0.00,1131.000000,,2013-04-22 21:33:00,
2013-04-22 14:43:00,73.0,34.0,-100.00,South,180,10.0,15.0,24,0.00,,,0.00,1131.000000,,2013-04-22 21:43:00,
2013-04-22 14:53:00,73.0,34.0,-100.00,South,180,10.0,15.0,24,0.00,,,0.00,1131.000000,,2013-04-22 21:53:00,
2013-04-22 15:02:00,70.0,38.0,-100.00,SSE,149,11.0,17.0,31,0.00,,,0.00,1051.000000,,2013-04-22 22:02:00,
2013-04-22 15:33:00,70.0,38.0,-100.00,SSE,149,11.0,17.0,31,0.00,,,0.00,1051.000000,,2013-04-22 22:33:00,
2013-04-22 15:42:00,70.0,38.0,-100.00,SSE,149,11.0,17.0,31,0.00,,,0.00,1051.000000,,2013-04-22 22:42:00,
2013-04-22 15:52:00,70.0,38.0,-100.00,SSE,149,11.0,17.0,31,0.00,,,0.00,1051.000000,,2013-04-22 22:52:00,
2013-04-22 16:33:00,68.0,35.0,-100.00,SSE,160,12.0,20.0,29,0.00,,,-99.99,919.000000,,2013-04-22 23:33:00,
2013-04-22 16:42:00,68.0,35.0,-100.00,SSE,160,12.0,20.0,29,0.00,,,-99.99,919.000000,,2013-04-22 23:42:00,
2013-04-22 16:52:00,68.0,35.0,-100.00,SSE,160,12.0,20.0,29,0.00,,,-99.99,919.000000,,2013-04-22 23:52:00,
2013-04-22 17:01:00,68.0,35.0,-100.00,SSE,160,12.0,20.0,29,0.00,,,-99.99,919.000000,,2013-04-23 00:01:00,
2013-04-22 17:22:00,65.0,34.0,-100.00,SSE,152,13.0,20.0,32,0.00,,,0.00,712.000000,,2013-04-23 00:22:00,
2013-04-22 17:32:00,65.0,34.0,-100.00,SSE,152,13.0,20.0,32,0.00,,,0.00,712.000000,,2013-04-23 00:32:00,
2013-04-22 17:42:00,65.0,34.0,-100.00,SSE,152,13.0,20.0,32,0.00,,,0.00,712.000000,,2013-04-23 00:42:00,
2013-04-22 17:52:00,65.0,34.0,-100.00,SSE,152,13.0,20.0,32,0.00,,,0.00,712.000000,,2013-04-23 00:52:00,
2013-04-22 18:01:00,65.0,34.0,-100.00,SSE,152,13.0,20.0,32,0.00,,,0.00,712.000000,,2013-04-23 01:01:00,
2013-04-22 18:32:00,63.0,37.0,-100.00,SE,146,10.0,22.0,38,0.00,,,0.00,454.000000,,2013-04-23 01:32:00,
2013-04-22 18:42:00,63.0,37.0,-100.00,SE,146,10.0,22.0,38,0.00,,,0.00,454.000000,,2013-04-23 01:42:00,
2013-04-22 18:52:00,63.0,37.0,-100.00,SE,146,10.0,22.0,38,0.00,,,0.00,454.000000,,2013-04-23 01:52:00,
2013-04-22 19:01:00,63.0,37.0,-100.00,SE,146,10.0,22.0,38,0.00,,,0.00,454.000000,,2013-04-23 02:01:00,
2013-04-22 19:33:00,60.0,36.0,-100.00,SE,140,11.0,19.0,40,0.00,,,0.00,195.000000,,2013-04-23 02:33:00,
2013-04-22 19:42:00,60.0,36.0,-100.00,SE,140,11.0,19.0,40,0.00,,,0.00,195.000000,,2013-04-23 02:42:00,
2013-04-22 19:52:00,60.0,36.0,-100.00,SE,140,11.0,19.0,40,0.00,,,0.00,195.000000,,2013-04-23 02:52:00,
2013-04-22 20:01:00,60.0,36.0,-100.00,SE,140,11.0,19.0,40,0.00,,,0.00,195.000000,,2013-04-23 03:01:00,
2013-04-22 20:02:00,58.0,31.0,-100.00,SE,142,10.0,19.0,36,0.00,,,0.00,14.000000,,2013-04-23 03:02:00,
2013-04-22 20:33:00,58.0,31.0,-100.00,SE,142,10.0,19.0,36,0.00,,,0.00,14.000000,,2013-04-23 03:33:00,
2013-04-22 20:43:00,58.0,31.0,-100.00,SE,142,10.0,19.0,36,0.00,,,0.00,14.000000,,2013-04-23 03:43:00,
2013-04-22 20:53:00,58.0,31.0,-100.00,SE,142,10.0,19.0,36,0.00,,,0.00,14.000000,,2013-04-23 03:53:00,
2013-04-22 21:02:00,56.0,35.0,-100.00,SE,139,8.0,17.0,45,0.00,,,0.00,0.000000,,2013-04-23 04:02:00,
2013-04-22 21:33:00,56.0,35.0,-100.00,SE,139,8.0,17.0,45,0.00,,,0.00,0.000000,,2013-04-23 04:33:00,
2013-04-22 21:43:00,56.0,35.0,-100.00,SE,139,8.0,17.0,45,0.00,,,0.00,0.000000,,2013-04-23 04:43:00,
2013-04-22 21:53:00,56.0,35.0,-100.00,SE,139,8.0,17.0,45,0.00,,,0.00,0.000000,,2013-04-23 04:53:00,
2013-04-22 22:22:00,55.0,38.0,-100.00,SE,142,10.0,14.0,53,0.00,,,0.00,0.000000,,2013-04-23 05:22:00,
2013-04-22 22:32:00,55.0,38.0,-100.00,SE,142,10.0,14.0,53,0.00,,,0.00,0.000000,,2013-04-23 05:32:00,
2013-04-22 22:42:00,55.0,38.0,-100.00,SE,142,10.0,14.0,53,0.00,,,0.00,0.000000,,2013-04-23 05:42:00,
2013-04-22 22:52:00,55.0,38.0,-100.00,SE,142,10.0,14.0,53,0.00,,,0.00,0.000000,,2013-04-23 05:52:00,
2013-04-22 23:01:00,55.0,38.0,-100.00,SE,142,10.0,14.0,53,0.00,,,0.00,0.000000,,2013-04-23 06:01:00,
2013-04-22 23:22:00,55.0,34.0,-100.00,SSE,149,8.0,15.0,45,0.00,,,0.00,0.000000,,2013-04-23 06:22:00,
2013-04-22 23:33:00,55.0,34.0,-100.00,SSE,149,8.0,15.0,45,0.00,,,0.00,0.000000,,2013-04-23 06:33:00,
2013-04-22 23:42:00,55.0,34.0,-100.00,SSE,149,8.0,15.0,45,0.00,,,0.00,0.000000,,2013-04-23 06:42:00,
2013-04-22 23:52:00,55.0,34.0,-100.00,SSE,149,8.0,15.0,45,0.00,,,0.00,0.000000,,2013-04-23 06:52:00,